Current Weather

Kerrville Muni/Louis Schreiner Fld

Kerrville, Texas (KERV)

Report from: Saturday, February 4, 2023 8:55 PM CST
Current time: Saturday, February 4, 2023 9:37 PM CST

Nearby weather
Weather history
Weather forecast

Temperature3.7°C (38.7°F)
Dew point3.0°C (37.4°F)
Winds Calm
Visibility10 mi. (16.1 km)
Clouds Sky clear
Altimeter30.26 in.Hg (1025 mB)
Relative humidity95 %
Density altitude-1,648 ft. (-502 m)
Remarks Fully automated report
Automated weather observing station with precipitation discriminator
Flight conditions Visual Meteorological Conditions
Raw dataKERV 050255Z AUTO 00000KT 10SM CLR 04/03 A3026 RMK AO2 T00370030
An unhandled exception has occurred. See browser dev tools for details. Reload 🗙